Station: Edithburgh  

  Atmospheric Gas Attenuation - ITU Rec 676-11   ----------------- dB/100km -----------------
Date Time Temp RH % AH g/m3 Dew Point Wind Direction Speed kph Gust kph Barometer mB Rainfall Since 9am 24GHz 47GHz 76GHz 122GHz 134GHz 241GHz
09/05 03:10 14.4 84 10.38 11.7 15 17 1029.8 0.2 23.3 29.3 47.6 125.1 123.3 425.6
09/05 03:00 14.2 84 10.26 11.5 11 15 1029.8 0.2 23.1 29.2 47.2 124.1 122.0 420.8
09/05 02:50 14 84 10.13 11.3 11 15 1029.9 0.2 22.8 29.0 46.8 122.9 120.5 415.5
09/05 02:40 14 84 10.13 11.3 13 15 1029.9 0.2 22.8 29.0 46.8 122.9 120.5 415.5
09/05 02:30 14 85 10.25 11.5 15 19 1029.9 0.2 23.1 29.2 47.3 124.3 122.1 421.4
09/05 02:20 13.9 85 10.19 11.4 13 15 1029.9 0.2 23.0 29.2 47.1 123.8 121.5 419.0
09/05 02:10 14.1 86 10.44 11.8 15 17 1029.9 0.2 23.5 29.5 48.1 126.3 124.7 430.2
09/05 02:00 14 86 10.37 11.7 15 19 1030 0.2 23.3 29.4 47.9 125.7 123.9 427.4
09/05 01:50 14 86 10.37 11.8 15 19 1030 0.2 23.3 29.4 47.9 125.7 123.9 427.4
09/05 01:40 14.1 86 10.44 11.9 17 19 1030 0.2 23.5 29.5 48.1 126.3 124.7 430.3
09/05 01:30 14.3 87 10.69 12.2 19 24 1030 0.2 24.0 29.9 49.1 128.9 127.9 441.6
09/05 01:20 14.3 86 10.57 12 15 17 1030 0.2 23.7 29.7 48.5 127.5 126.2 435.6
09/05 01:10 14.2 88 10.75 12.2 17 19 1030 0.2 24.1 30.0 49.4 129.8 128.9 445.2
09/05 01:00 13.9 90 10.79 12.3 13 17 1030.1 0.2 24.2 30.2 49.7 130.7 130.0 448.9
09/05 00:50 13.5 91 10.64 12 13 15 1030.2 0.2 23.9 30.1 49.3 129.7 128.6 443.7
09/05 00:40 14 89 10.74 12.3 19 22 1030.3 0.2 24.1 30.1 49.5 130.0 129.2 445.9
09/05 00:30 14.3 88 10.81 12.3 19 26 1030.2 0.2 24.3 30.1 49.6 130.3 129.6 447.6
09/05 00:20 14.4 83 10.26 11.5 20 24 1030.1 0.2 23.1 29.1 47.1 123.8 121.7 419.8
09/05 00:10 14.4 84 10.38 11.7 19 20 1030.2 0.2 23.3 29.3 47.7 125.2 123.4 425.7
09/05 00:00 14.3 85 10.44 11.8 15 22 1030.3 0.2 23.5 29.5 48.0 126.0 124.4 429.3
08/05 23:50 14.4 86 10.63 12.1 19 22 1030.4 0.2 23.9 29.8 48.7 128.1 126.9 438.2
08/05 23:40 14.3 86 10.57 12 13 17 1030.4 0.2 23.7 29.7 48.5 127.6 126.2 435.7
08/05 23:30 14.1 85 10.32 11.6 20 26 1030.4 0.2 23.2 29.3 47.6 125.0 123.0 424.5
08/05 23:20 14.5 84 10.45 11.8 19 22 1030.5 0.2 23.5 29.4 47.9 125.9 124.2 428.7
08/05 23:10 14.3 84 10.32 11.6 17 20 1030.6 0.2 23.2 29.3 47.5 124.7 122.7 423.4
08/05 23:00 14.4 85 10.51 11.9 17 26 1030.7 0.2 23.6 29.6 48.2 126.7 125.3 432.3
08/05 22:50 14.5 84 10.45 11.8 22 28 1030.8 0.2 23.5 29.5 47.9 125.9 124.3 428.8
08/05 22:40 14.2 84 10.26 11.5 13 15 1030.9 0.2 23.1 29.2 47.3 124.2 122.1 421.1
08/05 22:30 14.3 85 10.44 11.8 15 20 1030.9 0.2 23.5 29.5 48.0 126.1 124.4 429.5
08/05 22:20 14.4 85 10.51 11.9 17 19 1031 0.2 23.6 29.6 48.3 126.8 125.3 432.4
08/05 22:10 14.8 80 10.13 11.5 20 22 1030.9 0.2 22.8 28.8 46.4 121.8 119.3 411.6
08/05 22:00 14.7 82 10.32 11.7 19 24 1030.9 0.2 23.2 29.2 47.3 124.1 122.1 421.4
08/05 21:50 14.1 83 10.07 11.2 17 20 1030.8 0.2 22.7 28.9 46.5 122.2 119.5 412.3
08/05 21:40 14.3 80 9.83 11 19 20 1030.8 0.2 22.2 28.5 45.4 119.2 115.9 399.6
08/05 21:30 14.3 82 10.07 11.3 20 26 1030.8 0.2 22.7 28.9 46.4 121.9 119.2 411.2
08/05 21:20 14.8 83 10.51 11.9 28 32 1030.8 0.2 23.6 29.5 48.0 126.1 124.6 430.1
08/05 21:10 14.9 80 10.2 11.6 19 22 1030.8 0.2 22.9 28.9 46.6 122.4 120.1 414.4
08/05 21:00 14.9 81 10.32 11.7 19 24 1030.8 0.2 23.2 29.1 47.1 123.8 121.8 420.2
08/05 20:50 14.7 83 10.45 11.8 19 22 1030.8 0.2 23.5 29.4 47.8 125.6 123.9 427.7
08/05 20:40 14.8 85 10.77 12.3 24 28 1030.8 0.2 24.1 29.9 49.1 129.1 128.3 443.0
08/05 20:30 14.4 84 10.38 11.7 17 28 1030.8 0.2 23.3 29.4 47.7 125.3 123.4 425.9
08/05 20:20 14.5 85 10.57 12 24 32 1030.8 0.2 23.7 29.7 48.4 127.3 126.0 434.8
08/05 20:10 14.5 87 10.82 12.3 20 28 1030.9 0.2 24.3 30.1 49.5 130.2 129.5 447.2
08/05 20:00 14.8 86 10.89 12.5 15 24 1030.9 0.2 24.4 30.1 49.6 130.5 130.0 449.0
08/05 19:50 14.9 83 10.58 12 13 15 1030.9 0.2 23.7 29.5 48.2 126.7 125.4 433.0
08/05 19:40 14.6 83 10.39 11.7 19 22 1030.9 0.2 23.3 29.3 47.6 125.1 123.3 425.3
08/05 19:30 14.5 85 10.57 12 26 37 1030.7 0.2 23.7 29.7 48.4 127.3 125.9 434.7
08/05 19:20 14.9 84 10.71 12.2 32 35 1030.6 0.2 24.0 29.8 48.8 128.2 127.3 439.4
08/05 19:10 15.4 79 10.38 11.9 20 24 1030.6 0.2 23.3 29.0 47.1 123.6 121.8 420.4
08/05 19:00 15.7 80 10.7 12.3 20 30 1030.5 0.2 23.9 29.5 48.2 126.8 125.8 434.3
08/05 18:50 15.6 76 10.11 11.5 24 26 1030.4 0.2 22.7 28.5 45.8 120.3 117.7 406.2
08/05 18:40 15.6 77 10.24 11.7 26 32 1030.4 0.2 23.0 28.7 46.4 121.7 119.5 412.5
08/05 18:30 15.6 79 10.51 12 24 32 1030.3 0.2 23.5 29.2 47.5 124.8 123.3 425.5
08/05 18:20 15.5 84 11.1 12.8 17 20 1030.2 0.2 24.8 30.2 50.1 131.6 131.7 455.1
08/05 18:10 15.5 83 10.97 12.6 13 17 1030.2 0.2 24.5 30.0 49.5 130.2 129.9 448.7
08/05 18:00 16 77 10.49 12 15 20 1030.1 0.2 23.5 29.0 47.2 123.9 122.3 422.3
08/05 17:50 16.1 75 10.28 11.8 19 20 1030.1 0.2 23.0 28.6 46.2 121.4 119.3 411.7
08/05 17:40 16 76 10.35 11.9 20 24 1030 0.2 23.2 28.8 46.6 122.3 120.4 415.5
08/05 17:30 15.9 77 10.43 11.9 13 24 1029.9 0.2 23.4 28.9 47.0 123.3 121.6 419.9
08/05 17:20 15.7 80 10.7 12.2 15 19 1029.9 0.2 23.9 29.4 48.2 126.7 125.7 434.1
08/05 17:10 15.8 78 10.5 12.1 15 19 1029.9 0.2 23.5 29.1 47.3 124.3 122.8 423.8
08/05 17:00 15.9 78 10.56 12.1 17 28 1029.9 0.2 23.6 29.1 47.5 124.8 123.4 426.2
08/05 16:50 16.1 81 11.1 12.8 19 28 1029.8 0.2 24.8 30.0 49.7 130.6 130.7 451.5
08/05 16:40 16.1 80 10.97 12.6 19 22 1029.8 0.2 24.5 29.8 49.1 129.1 128.8 445.1
08/05 16:30 16.3 79 10.96 12.7 15 20 1029.9 0.2 24.5 29.7 49.0 128.7 128.4 443.5
08/05 16:20 16.4 78 10.89 12.5 19 24 1029.9 0.2 24.3 29.5 48.6 127.7 127.2 439.5
08/05 16:10 16.3 82 11.38 13.2 11 15 1029.9 0.2 25.4 30.4 50.8 133.5 134.3 464.1
08/05 16:00 15.9 83 11.24 13 17 26 1029.8 0.2 25.1 30.3 50.4 132.5 133.0 459.5
08/05 15:50 15.7 87 11.64 13.5 7 9 1030 0.2 26.0 31.1 52.3 137.6 139.1 480.8
08/05 15:40 15.6 88 11.7 13.6 11 13 1029.9 0.2 26.1 31.2 52.6 138.4 140.1 484.5
08/05 15:30 15.5 88 11.63 13.5 9 13 1029.9 0.2 25.9 31.1 52.4 137.8 139.3 481.6
08/05 15:20 15.4 88 11.56 13.4 15 17 1030.1 0.2 25.8 31.1 52.1 137.2 138.5 478.7
08/05 15:10 16.1 80 10.97 12.6 19 22 1030 0.2 24.5 29.8 49.1 129.1 128.9 445.1
08/05 15:00 16.4 83 11.58 13.5 13 20 1030 0.2 25.8 30.7 51.6 135.6 137.0 473.5
08/05 14:50 15.9 83 11.24 13 15 19 1030.1 0.2 25.1 30.3 50.4 132.6 133.0 459.7
08/05 14:40 15.6 84 11.17 12.9 13 19 1030.2 0.2 25.0 30.3 50.3 132.3 132.6 458.0
08/05 14:30 16.5 75 10.53 12.1 17 24 1030.2 0 23.5 28.9 47.0 123.5 122.1 421.6
08/05 14:20 17 74 10.71 12.3 13 19 1030.2 0 23.9 29.0 47.5 124.8 123.8 427.5
08/05 14:10 17.2 72 10.54 12.1 17 20 1030.2 0 23.5 28.7 46.7 122.5 121.1 418.3
08/05 14:00 17.5 70 10.44 12 17 24 1030.2 0 23.3 28.4 46.1 121.0 119.3 412.0
08/05 13:50 17.5 76 11.33 13.2 15 17 1030.3 0 25.2 29.9 49.8 130.9 131.5 454.7
08/05 13:40 16.9 75 10.79 12.4 19 22 1030.4 0 24.1 29.2 47.9 125.8 125.1 432.0
08/05 13:30 17 76 11 12.7 17 22 1030.4 0 24.5 29.5 48.7 128.0 127.8 441.6
08/05 13:20 16.9 79 11.36 13.2 11 13 1030.5 0 25.3 30.2 50.3 132.3 133.0 459.8
08/05 13:10 16 86 11.72 13.6 15 19 1030.7 0 26.1 31.1 52.5 138.1 139.8 483.3
08/05 13:00 15.3 87 11.36 13.2 19 26 1030.8 0 25.4 30.8 51.4 135.1 135.9 469.5
08/05 12:50 16.3 78 10.82 12.4 22 24 1030.8 0 24.2 29.5 48.4 127.2 126.5 436.9
08/05 12:40 16.2 81 11.17 12.9 17 20 1030.9 0 24.9 30.1 50.0 131.4 131.6 454.7
08/05 12:30 16.5 83 11.65 13.6 19 26 1031 0 25.9 30.9 51.9 136.4 137.9 476.7
08/05 12:20 15.3 88 11.49 13.3 19 22 1031.2 0 25.7 31.0 52.0 136.7 137.8 476.2
08/05 12:10 16.4 81 11.3 13.1 26 30 1031.3 0 25.2 30.3 50.4 132.6 133.1 460.1
08/05 12:00 16.1 83 11.38 13.2 20 28 1031.4 0 25.4 30.5 51.0 134.0 134.8 465.9
08/05 11:50 16.8 76 10.87 12.5 24 28 1031.5 0 24.2 29.4 48.3 127.0 126.4 436.8
08/05 11:40 16.3 83 11.51 13.4 13 17 1031.7 0 25.6 30.7 51.4 135.2 136.3 471.2
08/05 11:30 15.8 80 10.77 12.4 22 32 1031.7 0 24.1 29.6 48.5 127.5 126.7 437.6
08/05 11:20 16.4 75 10.47 11.9 26 32 1031.8 0 23.4 28.9 46.9 123.2 121.6 419.8
08/05 11:10 15.8 73 9.83 11.1 24 28 1031.8 0 22.1 28.0 44.6 117.0 113.7 392.3
08/05 11:00 17 76 11 12.7 19 28 1031.9 0 24.5 29.6 48.8 128.2 128.0 442.1
08/05 10:50 15.7 84 11.24 13.1 26 30 1032 0 25.1 30.5 50.6 133.1 133.6 461.5
08/05 10:40 15 84 10.77 12.3 20 24 1032.1 0 24.1 29.9 49.1 128.9 128.1 442.3

Last Refresh: 09-May-2026 03:15:00

Bureau of Meteorology